Latest Weather Observations for Lucinda

IDQ60801

Issued at 9:05 am EST Wednesday 3 September 2014 (issued every 30 minutes, with the page automatically refreshed every 10 minutes)

About weather observations | Map of weather stations | Latest weather observations for QLD | Other Formats
Station Details ID: 032141 Name: LUCINDA POINT Lat: -18.52 Lon: 146.39 Height: 10.0 m
Data from the previous 72 hours. | See also: Recent months for locations in Queensland
Date/Time
EST
Temp
°C
App
Temp
°C
Dew
Point
Rel
Hum
%
Delta-T
°C
Wind Press
QNH
hPa
Press
MSL
hPa
Rain
since 9 am
mm
Dir
 
Spd
km/h
Gust
km/h
Spd
kts
Gust
kts
03/09:00am 21.1 14.6 6.6 39 7.3 SW 30 35 16 19 1016.9 1016.9 0.0
03/08:30am 20.6 13.6 6.2 39 7.2 SW 32 35 17 19 1016.7 1016.7 0.0
03/08:00am 20.1 13.0 6.4 41 6.9 SW 33 39 18 21 1016.4 1016.4 0.0
03/07:30am 17.6 13.6 10.5 63 3.8 SW 22 28 12 15 1016.3 1016.3 0.0
03/07:00am 18.3 13.3 9.4 56 4.7 WSW 26 30 14 16 1016.0 1016.0 0.0
03/06:30am 18.1 14.3 11.0 63 3.8 WSW 22 28 12 15 1015.7 1015.7 0.0
03/06:00am 18.1 14.3 11.2 64 3.7 SW 22 26 12 14 1015.4 1015.4 0.0
03/05:30am 17.9 14.3 13.2 74 2.6 WSW 24 28 13 15 1014.9 1014.9 0.0
03/05:00am 17.8 14.5 13.9 78 2.2 SW 24 28 13 15 1014.5 1014.5 0.0
03/04:30am 18.2 15.6 15.8 86 1.4 SW 24 28 13 15 1014.4 1014.4 0.0
03/04:00am 18.6 17.3 15.7 83 1.7 SW 17 20 9 11 1014.3 1014.3 0.0
03/03:30am 18.9 18.2 16.3 85 1.6 SW 15 15 8 8 1014.4 1014.4 0.0
03/03:00am 19.3 18.9 16.2 82 1.9 SW 13 15 7 8 1014.5 1014.5 0.0
03/02:30am 19.7 19.2 16.0 79 2.2 SW 13 17 7 9 1014.7 1014.7 0.0
03/02:00am 20.3 20.4 16.5 79 2.3 SW 11 15 6 8 1014.9 1014.9 0.0
03/01:30am 20.5 19.5 15.7 74 2.9 WSW 15 17 8 9 1015.0 1015.0 0.0
03/01:00am 20.4 19.1 15.8 75 2.7 WSW 17 20 9 11 1015.1 1015.1 0.0
03/12:30am 20.3 18.9 15.5 74 2.8 WSW 17 20 9 11 1015.4 1015.4 0.0
03/12:00am 19.9 19.3 15.7 77 2.5 SW 13 15 7 8 1015.4 1015.4 0.0
 
Date/Time
EST
Temp
°C
App
Temp
°C
Dew
Point
Rel
Hum
%
Delta-T
°C
Wind Press
QNH
hPa
Press
MSL
hPa
Rain
since 9 am
mm
Dir
 
Spd
km/h
Gust
km/h
Spd
kts
Gust
kts
02/11:30pm 20.0 19.3 15.4 75 2.7 WSW 13 17 7 9 1015.5 1015.5 0.0
02/11:00pm 20.3 18.1 15.9 76 2.6 SW 22 26 12 14 1015.6 1015.6 0.0
02/10:30pm 21.5 19.6 15.1 67 3.8 SW 19 20 10 11 1015.5 1015.5 0.0
02/10:00pm 21.9 20.3 14.0 61 4.6 NW 15 22 8 12 1015.2 1015.2 0.0
02/09:30pm 21.9 18.7 16.2 70 3.4 NNW 28 32 15 17 1014.9 1014.9 0.0
02/09:00pm 21.9 19.3 16.0 69 3.5 NNW 24 30 13 16 1014.9 1014.9 0.0
02/08:30pm 22.0 18.1 15.6 67 3.8 NNW 30 35 16 19 1014.5 1014.5 0.0
02/08:00pm 21.9 18.7 16.2 70 3.4 NNW 28 35 15 19 1014.4 1014.4 0.0
02/07:30pm 22.2 18.7 16.5 70 3.5 NNW 30 35 16 19 1014.2 1014.2 0.0
02/07:00pm 22.1 18.8 16.1 69 3.6 N 28 35 15 19 1013.9 1013.9 0.0
02/06:30pm 22.2 19.0 16.2 69 3.6 N 28 35 15 19 1013.7 1013.7 0.0
02/06:00pm 22.1 18.4 15.9 68 3.7 N 30 37 16 20 1013.7 1013.7 0.0
02/05:30pm 22.2 17.7 14.8 63 4.4 N 32 41 17 22 1013.6 1013.6 0.0
02/05:00pm 22.5 18.0 15.4 64 4.2 N 33 39 18 21 1013.8 1013.8 0.0
02/04:30pm 22.7 18.4 15.3 63 4.4 N 32 37 17 20 1013.7 1013.7 0.0
02/04:00pm 22.4 17.6 14.5 61 4.6 N 33 39 18 21 1013.3 1013.3 0.0
02/03:30pm 22.4 17.8 14.5 61 4.6 N 32 37 17 20 1013.5 1013.5 0.0
02/03:00pm 22.8 18.4 14.1 58 5.1 N 30 35 16 19 1013.5 1013.5 0.0
02/02:30pm 22.6 18.5 13.9 58 5.1 NNE 28 32 15 17 1013.8 1013.8 0.0
02/02:00pm 22.2 19.1 13.3 57 5.1 N 22 30 12 16 1014.5 1014.5 0.0
02/01:30pm 22.8 20.0 13.3 55 5.5 NNE 20 26 11 14 1015.1 1015.1 0.0
02/01:00pm 22.4 19.6 13.2 56 5.3 NNE 20 22 11 12 1015.5 1015.5 0.0
02/12:30pm 22.0 19.9 12.5 54 5.4 ENE 15 19 8 10 1016.0 1016.0 0.0
02/12:00pm 23.9 23.0 12.5 49 6.5 SE 9 15 5 8 1016.7 1016.7 0.0
02/11:30am 23.3 22.3 12.3 50 6.3 SE 9 15 5 8 1017.2 1017.2 0.0
02/11:00am 22.6 22.0 12.3 52 5.8 SSE 7 11 4 6 1017.5 1017.5 0.0
02/10:30am 21.9 20.5 12.2 54 5.5 S 11 13 6 7 1017.8 1017.8 0.0
02/10:00am 21.3 19.7 12.7 58 4.9 SSW 13 15 7 8 1018.3 1018.3 0.0
02/09:30am 20.7 19.3 13.4 63 4.2 SW 13 15 7 8 1018.4 1018.4 0.0
02/09:00am 20.1 18.3 13.3 65 3.9 WSW 15 17 8 9 1018.4 1018.4 0.0
02/08:30am 19.3 17.2 13.5 69 3.3 WSW 17 19 9 10 1018.5 1018.5 0.0
02/08:00am 19.0 16.4 13.8 72 3.0 WSW 20 20 11 11 1018.3 1018.3 0.0
02/07:30am 18.4 15.9 13.5 73 2.8 WSW 19 20 10 11 1018.1 1018.1 0.0
02/07:00am 18.0 15.3 12.9 72 2.9 WSW 19 22 10 12 1017.9 1017.9 0.0
02/06:30am 17.9 15.3 13.2 74 2.6 WSW 19 22 10 12 1017.8 1017.8 0.0
02/06:00am 18.0 15.8 13.3 74 2.6 WSW 17 19 9 10 1017.2 1017.2 0.0
02/05:30am 18.0 15.2 13.1 73 2.8 SW 20 22 11 12 1017.3 1017.3 0.0
02/05:00am 18.0 15.7 13.1 73 2.8 WSW 17 20 9 11 1017.0 1017.0 0.0
02/04:30am 18.2 15.7 13.5 74 2.7 WSW 19 20 10 11 1017.1 1017.1 0.0
02/04:00am 18.4 15.7 13.5 73 2.8 SW 20 22 11 12 1017.2 1017.2 0.0
02/03:30am 18.6 17.0 13.9 74 2.7 SW 15 19 8 10 1017.1 1017.1 0.0
02/03:00am 18.2 16.0 13.3 73 2.8 SW 17 20 9 11 1017.3 1017.3 0.0
02/02:30am 18.3 16.2 13.6 74 2.7 SW 17 19 9 10 1017.6 1017.6 0.0
02/02:00am 18.4 16.1 14.1 76 2.5 SW 19 20 10 11 1017.7 1017.7 0.0
02/01:30am 18.6 16.3 14.1 75 2.6 SW 19 20 10 11 1017.6 1017.6 0.0
02/01:00am 19.2 18.1 14.2 73 2.9 SW 13 15 7 8 1017.7 1017.7 0.0
02/12:30am 19.7 19.4 14.5 72 3.0 WSW 9 11 5 6 1017.8 1017.8 0.0
02/12:00am 20.4 19.2 14.1 67 3.6 WSW 13 13 7 7 1018.0 1018.0 0.0
 
Date/Time
EST
Temp
°C
App
Temp
°C
Dew
Point
Rel
Hum
%
Delta-T
°C
Wind Press
QNH
hPa
Press
MSL
hPa
Rain
since 9 am
mm
Dir
 
Spd
km/h
Gust
km/h
Spd
kts
Gust
kts
01/11:30pm 21.6 20.7 12.7 57 5.1 NNW 9 15 5 8 1017.9 1017.9 0.0
01/11:00pm 21.6 19.8 13.2 59 4.8 NNW 15 20 8 11 1017.8 1017.8 0.0
01/10:30pm 21.9 19.6 11.9 53 5.6 N 15 20 8 11 1017.9 1017.9 0.0
01/10:00pm 22.1 19.3 11.2 50 6.0 NE 17 24 9 13 1017.8 1017.8 0.0
01/09:30pm 22.1 19.3 11.2 50 6.0 ENE 17 20 9 11 1018.1 1018.1 0.0
01/09:00pm 21.7 20.4 13.6 60 4.7 N 13 17 7 9 1017.9 1017.9 0.0
01/08:30pm 21.6 20.3 13.8 61 4.5 NNE 13 17 7 9 1018.0 1018.0 0.0
01/08:00pm 21.6 20.0 14.0 62 4.4 NE 15 20 8 11 1017.5 1017.5 0.0
01/07:30pm 21.6 19.6 13.8 61 4.5 NE 17 20 9 11 1017.1 1017.1 0.0
01/07:00pm 21.5 19.8 13.7 61 4.5 ENE 15 19 8 10 1017.0 1017.0 0.0
01/06:30pm 21.6 20.4 14.0 62 4.4 E 13 17 7 9 1016.6 1016.6 0.0
01/06:00pm 21.8 20.5 13.7 60 4.7 E 13 17 7 9 1016.4 1016.4 0.0
01/05:30pm 21.9 20.5 13.5 59 4.8 E 13 19 7 10 1016.1 1016.1 0.0
01/05:00pm 22.5 21.0 13.0 55 5.4 ESE 13 17 7 9 1015.9 1015.9 0.0
01/04:30pm 22.7 21.2 12.0 50 6.0 E 11 17 6 9 1015.8 1015.8 0.0
01/04:00pm 23.0 21.5 12.0 50 6.2 E 11 17 6 9 1015.8 1015.8 0.0
01/03:30pm 23.5 21.4 9.9 42 7.4 ESE 11 15 6 8 1015.9 1015.9 0.0
01/03:00pm 23.6 21.5 9.9 42 7.5 ESE 11 15 6 8 1016.0 1016.0 0.0
01/02:30pm 23.9 22.7 12.8 49 6.4 ESE 11 17 6 9 1016.1 1016.1 0.0
01/02:00pm 23.5 23.1 13.1 52 6.0 ESE 7 13 4 7 1016.4 1016.4 0.0
01/01:30pm 22.3 21.5 13.9 59 4.9 S 11 15 6 8 1016.9 1016.9 0.0
01/01:00pm 22.2 21.0 14.1 60 4.7 S 13 15 7 8 1017.4 1017.4 0.0
01/12:30pm 21.7 20.0 13.6 60 4.7 SSW 15 17 8 9 1017.8 1017.8 0.0
01/12:00pm 21.8 20.7 14.4 63 4.3 SSW 13 17 7 9 1018.4 1018.4 0.0
01/11:30am 21.8 20.7 14.2 62 4.4 SSW 13 17 7 9 1018.7 1018.7 0.0
01/11:00am 21.6 20.3 14.7 65 4.1 SSW 15 17 8 9 1018.9 1018.9 0.0
01/10:30am 21.1 20.0 14.3 65 4.0 SSW 13 17 7 9 1019.3 1019.3 0.0
01/10:00am 20.5 18.5 13.9 66 3.8 SSW 17 20 9 11 1019.4 1019.4 0.0
01/09:30am 20.1 17.8 13.1 64 4.0 SW 17 20 9 11 1019.3 1019.3 0.0
01/09:00am 19.8 17.2 13.3 66 3.7 SW 19 22 10 12 1019.1 1019.1 0.0
01/08:30am 19.3 16.5 13.2 68 3.5 SW 20 26 11 14 1018.8 1018.8 0.0
01/08:00am 19.2 16.4 13.2 68 3.4 SW 20 22 11 12 1018.2 1018.2 0.0
01/07:30am 18.7 16.4 13.1 70 3.2 SW 17 20 9 11 1017.9 1017.9 0.0
01/07:00am 18.7 17.3 14.4 76 2.5 SW 15 17 8 9 1017.5 1017.5 0.0
01/06:30am 18.4 16.9 14.3 77 2.4 WSW 15 17 8 9 1017.2 1017.2 0.0
01/06:00am 18.1 16.5 14.0 77 2.3 WSW 15 19 8 10 1016.9 1016.9 0.0
01/05:30am 18.3 16.2 13.6 74 2.7 WSW 17 20 9 11 1016.8 1016.8 0.0
01/05:00am 18.3 15.8 13.6 74 2.7 WSW 19 20 10 11 1016.5 1016.5 0.0
01/04:30am 17.9 15.6 13.0 73 2.7 WSW 17 19 9 10 1016.5 1016.5 0.0
01/04:00am 18.4 16.3 13.5 73 2.8 WSW 17 19 9 10 1016.4 1016.4 0.0
01/03:30am 18.8 16.4 12.8 68 3.4 WSW 17 20 9 11 1016.4 1016.4 0.0
01/03:00am 19.1 16.4 12.8 67 3.5 WSW 19 20 10 11 1016.5 1016.5 0.0
01/02:30am 19.1 16.7 12.8 67 3.5 WSW 17 20 9 11 1016.5 1016.5 0.0
01/02:00am 19.1 16.4 12.8 67 3.5 WSW 19 20 10 11 1016.8 1016.8 0.0
01/01:30am 18.6 15.6 12.4 67 3.5 WSW 20 24 11 13 1017.1 1017.1 0.0
01/01:00am 18.5 15.6 12.9 70 3.1 WSW 20 22 11 12 1017.3 1017.3 0.0
01/12:30am 18.9 16.8 13.5 71 3.1 WSW 17 19 9 10 1017.4 1017.4 0.0
01/12:00am 21.8 21.2 12.4 55 5.3 SE 7 13 4 7 1017.7 1017.7 0.0
 
Date/Time
EST
Temp
°C
App
Temp
°C
Dew
Point
Rel
Hum
%
Delta-T
°C
Wind Press
QNH
hPa
Press
MSL
hPa
Rain
since 9 am
mm
Dir
 
Spd
km/h
Gust
km/h
Spd
kts
Gust
kts
31/11:30pm 21.8 20.5 11.2 51 5.9 ESE 9 15 5 8 1017.5 1017.5 0.0
31/11:00pm 21.9 19.9 11.6 52 5.7 E 13 17 7 9 1017.7 1017.7 0.0
31/10:30pm 21.8 20.4 12.1 54 5.5 ESE 11 20 6 11 1017.5 1017.5 0.0
31/10:00pm 21.9 19.3 11.9 53 5.6 E 17 22 9 12 1017.4 1017.4 0.0
31/09:30pm 21.9 19.0 11.0 50 6.0 E 17 22 9 12 1017.5 1017.5 0.0
31/09:00pm 21.6 19.2 12.5 56 5.1 ESE 17 24 9 13 1017.5 1017.5 0.0
31/08:30pm 21.6 19.8 13.2 59 4.8 E 15 22 8 12 1017.2 1017.2 0.0
31/08:00pm 21.6 18.9 13.0 58 4.9 ENE 19 24 10 13 1016.7 1016.7 0.0
31/07:30pm 21.7 18.9 13.3 59 4.8 E 20 28 11 15 1016.5 1016.5 0.0
31/07:00pm 21.7 18.6 11.7 53 5.6 ESE 19 26 10 14 1016.4 1016.4 0.0
31/06:30pm 21.7 18.1 10.5 49 6.1 ESE 20 28 11 15 1016.0 1016.0 0.0
31/06:00pm 21.9 18.0 9.4 45 6.7 ESE 20 26 11 14 1015.7 1015.7 0.0
31/05:30pm 22.5 18.4 8.6 41 7.4 ESE 20 28 11 15 1015.3 1015.3 0.0
31/05:00pm 22.8 19.0 9.9 44 7.0 ESE 20 28 11 15 1014.8 1014.8 0.0
31/04:30pm 22.3 17.9 10.5 47 6.5 ESE 24 30 13 16 1014.7 1014.7 0.0
31/04:00pm 22.5 18.5 9.0 42 7.2 E 20 32 11 17 1014.7 1014.7 0.0
31/03:30pm 23.1 19.9 8.4 39 7.8 ESE 15 24 8 13 1014.6 1014.6 0.0
31/03:00pm 22.8 19.4 7.8 38 7.8 SE 15 22 8 12 1014.8 1014.8 0.0
31/02:30pm 23.2 20.2 9.2 41 7.5 ESE 15 26 8 14 1015.0 1015.0 0.0
31/02:00pm 23.2 20.9 8.9 40 7.7 S 11 17 6 9 1015.3 1015.3 0.0
31/01:30pm 22.4 20.7 12.6 54 5.6 S 13 20 7 11 1015.8 1015.8 0.0
31/01:00pm 22.0 19.8 13.4 58 5.0 S 17 22 9 12 1016.2 1016.2 0.0
31/12:30pm 21.8 19.6 13.2 58 4.9 S 17 20 9 11 1016.6 1016.6 0.0
31/12:00pm 21.6 19.8 14.5 64 4.2 S 17 20 9 11 1017.0 1017.0 0.0
31/11:30am 21.2 19.6 15.1 68 3.6 SSW 17 20 9 11 1017.4 1017.4 0.0
31/11:00am 20.9 19.0 15.7 72 3.1 SSW 20 24 11 13 1017.8 1017.8 0.0
31/10:30am 20.9 19.2 15.7 72 3.1 SSW 19 24 10 13 1018.1 1018.1 0.0
31/10:00am 20.5 18.6 15.1 71 3.2 SSW 19 24 10 13 1018.4 1018.4 0.0
31/09:30am 20.3 18.7 14.9 71 3.2 SSW 17 20 9 11 1018.5 1018.5 0.0

Other Formats:

Comma delimited format used in spreadsheet applications
http://www.bom.gov.au/fwo/IDQ60801/IDQ60801.94295.axf

JavaScript Object Notation format (JSON) in row-major order
http://www.bom.gov.au/fwo/IDQ60801/IDQ60801.94295.json